Nearby METAR Reports

 

EDNY - Friedrichshafen, Germany
Distance from station: ONO 32km
aktuell: 25.09.2017 07:20
Mist, geschlossene Wolkendecke
Mist, geschlossene Wolkendecke
 Wind von NNO
Wind: NNO 7 km/h
Temperatur: 9°C
gefühlte Temperatur: 8°C
Taupunkt: 8°C
Luftfeuchte: 94%
Luftdruck: 1020 hPa
Zusammenfassung: Mist
Clouds: geschlossene Wolkendecke
Visibility: 3 km
Cloud details: geschlossene Wolkendecke 335 m
2017/09/25 05:20 EDNY 250520Z 03004KT 360V060 3300 BR OVC011 09/08 Q1020
LSZR - Rheineck/Altenrh, Switzerland
Distance from station: OSO 37km
aktuell: 25.09.2017 07:50
stark bewölkt
stark bewölkt
 Wind von varies
Wind: varies 4 km/h
Temperatur: 10°C
Taupunkt: 10°C
Luftfeuchte: 100%
Luftdruck: 1020 hPa
Clouds: stark bewölkt
Visibility: 6 km
Cloud details: stark bewölkt 396 m
2017/09/25 05:50 LSZR 250550Z VRB02KT 6000 BKN013 10/10 Q1020 NOSIG RMK B
LSMD - Dubendorf, Switzerland
Distance from station: SW 40km
aktuell: 25.09.2017 07:50
Mist, Few clouds
Mist, Few clouds
 Wind von calm
Wind: Windstill
Temperatur: 9°C
Taupunkt: 8°C
Luftfeuchte: 94%
Luftdruck: 1020 hPa
Zusammenfassung: Mist
Clouds: Few Clouds
Visibility: 2 km
Cloud details: Few Clouds 61 m
2017/09/25 05:50 LSMD 250550Z 00000KT 2100 BR FEW002 09/08 Q1020 RMK YLO
 
LSZH - Zurich-Kloten (a, Switzerland
Distance from station: WSW 44km
aktuell: 25.09.2017 07:50
Mist, teilweise bewölkt
Mist, teilweise bewölkt
 Wind von varies
Wind: varies 4 km/h
Temperatur: 9°C
Taupunkt: 8°C
Luftfeuchte: 94%
Luftdruck: 1020 hPa
Zusammenfassung: Mist
Clouds: teilweise bewölkt
Visibility: 5 km
Cloud details: Few Clouds 30 m
teilweise bewölkt 122 m
2017/09/25 05:50 LSZH 250550Z VRB02KT 5000 BR FEW001 SCT004 09/08 Q1020 TEMPO 3500 BKN004
LOIH - Hohenems-Dornbir, Austria
Distance from station: OSO 51km
aktuell: 31.10.2016 17:00
NOT Current
geschlossene Wolkendecke
geschlossene Wolkendecke
 Wind von calm
Wind: Windstill
Temperatur: 10°C
Taupunkt: 9°C
Luftfeuchte: 94%
Luftdruck: 1026 hPa
Clouds: geschlossene Wolkendecke
Cloud details: geschlossene Wolkendecke 305 m
2016/10/31 16:00 LOIH 311600Z 00000KT 10KM OVC010ST 10/09 Q1026 RMK OVC
LSME - Emmen, Switzerland
Distance from station: SW 82km
aktuell: 25.09.2017 07:50
stark bewölkt
stark bewölkt
 Wind von calm
Wind: Windstill
Temperatur: 9°C
Taupunkt: 9°C
Luftfeuchte: 100%
Luftdruck: 1020 hPa
Clouds: stark bewölkt
Visibility: 5 km
Cloud details: Few Clouds 61 m
teilweise bewölkt 122 m
stark bewölkt 457 m
2017/09/25 05:50 LSME 250550Z 00000KT 5000 FEW002 SCT004 BKN015 09/09 Q1020 RMK WHT
 
LSZC - Buochs, Switzerland
Distance from station: SW 89km
aktuell: 25.09.2017 07:50
Patches of fog, Few clouds
Patches of fog, Few clouds
 Wind von WSW
Wind: WSW 6 km/h
Temperatur: 9°C
Taupunkt: 8°C
Luftfeuchte: 94%
Luftdruck: 1020 hPa
Zusammenfassung: Patches of Fog
Clouds: Few Clouds
Visibility: 10 km
Cloud details: Few Clouds 366 m
2017/09/25 05:50 LSZC 250550Z 24003KT 9999 BCFG FEW012 09/08 Q1020
ETHL - Laupheim (ger-Ar, Germany
Distance from station: NO 92km
aktuell: 25.09.2017 07:40
Nearby fog, Shallow, Fog, Few clouds
Nearby fog, Shallow, Fog, Few clouds
 Wind von ONO
Wind: ONO 2 km/h
Temperatur: 6°C
Taupunkt: 5°C
Luftfeuchte: 93%
Luftdruck: 1021 hPa
Zusammenfassung: Nearby fog, Shallow, Fog
Clouds: Few Clouds
Visibility: 2 km
Cloud details: Few Clouds 2438 m
2017/09/25 05:40 ETHL 250540Z 06001KT 2000 VCFG MIFG FEW080 06/05 Q1021 YLO YLO TEMPO RED
EDJA - Memmingen Allgau, Germany
Distance from station: ONO 95km
aktuell: 25.09.2017 07:20
Fog, teilweise bewölkt
Fog, teilweise bewölkt
 Wind von varies
Wind: varies 4 km/h
Temperatur: 6°C
Taupunkt: 6°C
Luftfeuchte: 100%
Luftdruck: 1020 hPa
Zusammenfassung: Fog
Clouds: teilweise bewölkt
Visibility: 1 km
2017/09/25 05:20 EDJA 250520Z VRB02KT 0800 0650SW R24/0550V1000D FG NSC 06/06 Q1020
 
LSMA - Alpnach, Switzerland
Distance from station: SW 95km
aktuell: 25.09.2017 07:50
klar
klar
 Wind von varies
Wind: varies 2 km/h
Temperatur: 7°C
Taupunkt: 7°C
Luftfeuchte: 100%
Luftdruck: 1020 hPa
Clouds: klar
Visibility: 8 miles
2017/09/25 05:50 LSMA 250550Z AUTO VRB01KT 5000NDV NCD 07/07 Q1020 RMK